SHMÚ vydal meteorologické výstrahy na Prízemný mráz Zobraziť výstrahy

METAR

Letisková meteorologická správa METAR

Meteorologické informácie z ďalších profesionálnych meteorologických staníc SHMÚ zobrazené v tvare zodpovedajúcom pravidlám kódovania správ METAR sú uvedené v položke „METSYN

Informácie o správe METAR

27.09.2016 - 10:00 UTC

METAR LZIB 271000Z 14003KT 080V220 9999 FEW043 19/08 Q1026 NOSIG=
METAR LZKZ 271000Z 23004KT 150V280 CAVOK 18/08 Q1026 NOSIG=
METAR LZPP 271000Z VRB02KT 9999 FEW033 19/10 Q1026=
METAR LZSL 271000Z VRB02KT 9999 FEW050 17/08 Q1026=
METAR LZTT 271000Z 25004KT 190V330 9999 FEW046 15/06 Q1026 NOSIG=
METAR LZZI 271000Z VRB01KT 9999 FEW024 16/11 Q1026=

27.09.2016 - 09:30 UTC

METAR LZIB 270930Z 06004KT 020V110 9999 FEW040 18/08 Q1026 NOSIG=
METAR LZKZ 270930Z 20004KT 150V240 CAVOK 17/08 Q1026 NOSIG=
METAR LZPP 270930Z VRB02KT 9999 FEW030 17/10 Q1026=
METAR LZSL 270930Z VRB01KT 9999 FEW050 16/08 Q1026=
METAR LZTT 270930Z VRB02KT 9999 FEW046 15/06 Q1026 NOSIG=
METAR LZZI 270930Z VRB01KT 9999 FEW023 13/10 Q1026=

27.09.2016 - 10:00 UTC

METAR LZMC 271000Z 25004KT 9999 SCT045 20/08 Q1026=
METAR LZPW 271000Z 10004KT 9999 FEW040 SCT200 17/07
Q1026=

skok na menu ↑


skok na začiatok stránky ↑